Time;durP1;ratioP1;P1;durP2;ratioP2;P2;SDS_P1;SDS_P2;PMS_P1;PMS_P2;Temp;Humidity;BMP_temperature;BMP_pressure;BME280_temperature;BME280_humidity;BME280_pressure;Samples;Min_cycle;Max_cycle;Signal;HPM_P1;HPM_P2
2023/10/18 00:01:05;;;;;;;;;;;;;;;4.75;100.00;96129.34;5065648;28;19929;-73
2023/10/18 00:03:32;;;;;;;;;;;;;;;4.74;100.00;96127.72;5065644;28;19933;-72
2023/10/18 00:06:16;;;;;;;;;;;;;;;4.74;100.00;96134.72;5065520;28;19936;-76
2023/10/18 00:08:42;;;;;;;;;;;;;;;4.71;100.00;96129.91;5065549;28;19931;-76
2023/10/18 00:11:08;;;;;;;;;;;;;;;4.68;100.00;96134.50;5066003;28;19942;-76
2023/10/18 00:13:34;;;;;;;;;;;;;;;4.66;100.00;96123.50;5066174;28;19939;-77
2023/10/18 00:16:01;;;;;;;;;;;;;;;4.65;100.00;96137.44;5065327;28;19933;-77
2023/10/18 00:18:26;;;;;;;;;;;;;;;4.64;100.00;96133.25;5065230;28;19945;-76
2023/10/18 00:20:59;;;;;;;;;;;;;;;4.63;100.00;96128.25;5065249;28;19936;-72
2023/10/18 00:23:26;;;;;;;;;;;;;;;4.61;100.00;96130.22;5065579;28;19940;-69
2023/10/18 00:25:52;;;;;;;;;;;;;;;4.59;100.00;96133.00;5065171;28;19937;-70
2023/10/18 00:28:19;;;;;;;;;;;;;;;4.58;100.00;96133.22;5065162;28;19936;-70
2023/10/18 00:30:46;;;;;;;;;;;;;;;4.59;100.00;96129.59;5064627;28;19935;-69
2023/10/18 00:33:12;;;;;;;;;;;;;;;4.81;100.00;96115.59;5065018;28;19933;-69
2023/10/18 00:35:41;;;;;;;;;;;;;;;4.90;100.00;96100.66;5064890;28;19958;-70
2023/10/18 00:38:16;;;;;;;;;;;;;;;4.88;100.00;96094.84;5065132;28;20115;-72
2023/10/18 00:40:45;;;;;;;;;;;;;;;4.83;100.00;96092.00;5065665;28;19946;-73
2023/10/18 00:43:20;;;;;;;;;;;;;;;4.77;100.00;96085.00;5065591;28;20133;-83
2023/10/18 00:45:47;;;;;;;;;;;;;;;4.70;100.00;96081.53;5065352;28;19935;-83
2023/10/18 00:48:14;;;;;;;;;;;;;;;4.64;100.00;96078.72;5064792;28;19971;-82
2023/10/18 00:50:43;;;;;;;;;;;;;;;4.58;100.00;96074.28;5064456;28;19939;-82
2023/10/18 00:53:19;;;;;;;;;;;;;;;4.55;100.00;96074.63;5065163;28;20212;-83
2023/10/18 00:55:59;;;;;;;;;;;;;;;4.51;100.00;96072.63;5063120;28;20596;-79
2023/10/18 00:58:29;;;;;;;;;;;;;;;4.48;100.00;96079.78;5065047;28;20142;-69
2023/10/18 01:01:08;;;;;;;;;;;;;;;4.48;100.00;96071.22;5064458;28;19946;-75
2023/10/18 01:03:50;;;;;;;;;;;;;;;4.45;100.00;96056.81;5064408;28;19940;-74
2023/10/18 01:06:19;;;;;;;;;;;;;;;4.45;100.00;96059.41;5065248;28;19958;-75
2023/10/18 01:08:46;;;;;;;;;;;;;;;4.41;100.00;96049.56;5064377;28;19938;-75
2023/10/18 01:11:12;;;;;;;;;;;;;;;4.39;100.00;96046.34;5065145;28;19935;-75
2023/10/18 01:13:42;;;;;;;;;;;;;;;4.37;100.00;96038.78;5064292;28;19943;-77
2023/10/18 01:16:13;;;;;;;;;;;;;;;4.37;100.00;96040.56;5064793;28;19938;-77
2023/10/18 01:18:42;;;;;;;;;;;;;;;4.37;100.00;96045.78;5064984;28;19985;-72
2023/10/18 01:21:13;;;;;;;;;;;;;;;4.36;100.00;96041.56;5064451;28;20233;-73
2023/10/18 01:23:43;;;;;;;;;;;;;;;4.36;100.00;96033.75;5064688;28;19929;-72
2023/10/18 01:26:15;;;;;;;;;;;;;;;4.35;100.00;96035.56;5064624;28;20210;-72
2023/10/18 01:28:41;;;;;;;;;;;;;;;4.32;100.00;96030.72;5064625;28;19932;-73
2023/10/18 01:31:07;;;;;;;;;;;;;;;4.32;100.00;96037.72;5064058;28;19966;-72
2023/10/18 01:33:35;;;;;;;;;;;;;;;4.33;100.00;96039.34;5064015;28;19932;-79
2023/10/18 01:36:01;;;;;;;;;;;;;;;4.31;100.00;96036.94;5062749;28;19946;-72
2023/10/18 01:38:30;;;;;;;;;;;;;;;4.31;100.00;96036.94;5062805;28;19954;-72
2023/10/18 01:40:57;;;;;;;;;;;;;;;4.31;100.00;96039.53;5063899;28;20143;-72
2023/10/18 01:43:28;;;;;;;;;;;;;;;4.30;100.00;96037.13;5063653;28;19938;-72
2023/10/18 01:45:54;;;;;;;;;;;;;;;4.28;100.00;96034.69;5064670;28;19937;-72
2023/10/18 01:48:20;;;;;;;;;;;;;;;4.27;100.00;96031.31;5063683;28;19961;-72
2023/10/18 01:50:46;;;;;;;;;;;;;;;4.28;100.00;96029.50;5063853;28;19935;-72
2023/10/18 01:53:15;;;;;;;;;;;;;;;4.28;100.00;96024.31;5064346;28;19935;-73
2023/10/18 01:55:44;;;;;;;;;;;;;;;4.27;100.00;96026.13;5064218;28;19945;-78
2023/10/18 01:58:10;;;;;;;;;;;;;;;4.26;100.00;96015.91;5064461;28;19958;-77
2023/10/18 02:00:41;;;;;;;;;;;;;;;4.26;100.00;96013.31;5063762;28;19936;-76
2023/10/18 02:03:08;;;;;;;;;;;;;;;4.27;100.00;96017.53;5064562;28;19935;-76
2023/10/18 02:05:38;;;;;;;;;;;;;;;4.27;100.00;96013.13;5063928;28;19935;-77
2023/10/18 02:08:05;;;;;;;;;;;;;;;4.29;100.00;96012.16;5064190;28;19940;-78
2023/10/18 02:10:32;;;;;;;;;;;;;;;4.30;100.00;96018.94;5063700;28;19936;-70
2023/10/18 02:12:58;;;;;;;;;;;;;;;4.31;100.00;96017.97;5063640;28;19938;-78
2023/10/18 02:15:24;;;;;;;;;;;;;;;4.32;100.00;96022.16;5063698;28;19943;-72
2023/10/18 02:17:56;;;;;;;;;;;;;;;4.33;100.00;96013.38;5063422;28;19986;-73
2023/10/18 02:20:26;;;;;;;;;;;;;;;4.34;100.00;96012.38;5064145;28;19974;-71
2023/10/18 02:22:59;;;;;;;;;;;;;;;4.36;100.00;96018.19;5064311;28;19932;-72
2023/10/18 02:25:44;;;;;;;;;;;;;;;4.36;100.00;96018.19;5063827;28;20232;-71
2023/10/18 02:28:23;;;;;;;;;;;;;;;4.35;100.00;96014.00;5063797;28;20116;-70
2023/10/18 02:30:55;;;;;;;;;;;;;;;4.35;100.00;96011.41;5064055;28;19934;-71
2023/10/18 02:33:45;;;;;;;;;;;;;;;4.34;100.00;96007.19;5063465;28;19941;-73
2023/10/18 02:36:11;;;;;;;;;;;;;;;4.34;100.00;96009.78;5063938;28;20260;-73
2023/10/18 02:38:41;;;;;;;;;;;;;;;4.34;100.00;96010.59;5064133;28;19952;-73
2023/10/18 02:43:52;;;;;;;;;;;;;;;4.33;100.00;96003.81;5064148;28;19932;-71
2023/10/18 02:46:24;;;;;;;;;;;;;;;4.32;100.00;95999.59;5063348;28;19934;-72
2023/10/18 02:48:54;;;;;;;;;;;;;;;4.33;100.00;95996.00;5063479;28;20279;-77
2023/10/18 02:51:23;;;;;;;;;;;;;;;4.34;100.00;95992.41;5063327;28;19951;-76
2023/10/18 02:53:54;;;;;;;;;;;;;;;4.34;100.00;95989.81;5064315;28;19931;-76
2023/10/18 02:59:18;;;;;;;;;;;;;;;4.34;100.00;95979.44;5057815;28;19955;-76
2023/10/18 03:01:44;;;;;;;;;;;;;;;4.33;100.00;95984.84;5067389;28;19942;-76
2023/10/18 03:04:18;;;;;;;;;;;;;;;4.33;100.00;95982.25;5066801;28;20218;-77
2023/10/18 03:06:46;;;;;;;;;;;;;;;4.32;100.00;95989.19;5067275;28;19938;-76
2023/10/18 03:11:58;;;;;;;;;;;;;;;4.29;100.00;95996.59;5066616;28;19938;-69
2023/10/18 03:14:41;;;;;;;;;;;;;;;4.26;100.00;95995.16;5066546;28;19940;-69
2023/10/18 03:19:55;;;;;;;;;;;;;;;4.25;100.00;95989.16;5067305;28;19934;-69
2023/10/18 03:22:22;;;;;;;;;;;;;;;4.24;100.00;95990.16;5067024;28;19935;-69
2023/10/18 03:24:54;;;;;;;;;;;;;;;4.22;100.00;95989.56;5066299;28;19941;-72
2023/10/18 03:27:20;;;;;;;;;;;;;;;4.19;100.00;95989.13;5066957;28;19933;-71
2023/10/18 03:29:46;;;;;;;;;;;;;;;4.16;100.00;95982.53;5066271;28;20121;-72
2023/10/18 03:32:19;;;;;;;;;;;;;;;4.13;100.00;95974.31;5066250;28;19935;-72
2023/10/18 03:34:45;;;;;;;;;;;;;;;4.07;100.00;95952.50;5066198;28;19947;-72
2023/10/18 03:37:26;;;;;;;;;;;;;;;4.05;100.00;95951.88;5066197;28;20017;-72
2023/10/18 03:39:56;;;;;;;;;;;;;;;4.04;100.00;95948.50;5066639;28;19931;-72
2023/10/18 03:42:31;;;;;;;;;;;;;;;4.01;100.00;95943.69;5066611;28;19934;-72
2023/10/18 03:44:57;;;;;;;;;;;;;;;4.00;100.00;95949.84;5066869;28;19934;-76
2023/10/18 03:47:28;;;;;;;;;;;;;;;4.00;100.00;95951.66;5065798;28;20130;-70
2023/10/18 03:49:55;;;;;;;;;;;;;;;3.99;100.00;95950.03;5065987;28;19936;-70
2023/10/18 03:52:26;;;;;;;;;;;;;;;3.98;100.00;95940.66;5065917;28;20213;-70
2023/10/18 03:57:28;;;;;;;;;;;;;;;3.96;100.00;95942.66;5066241;28;20075;-70
2023/10/18 03:59:58;;;;;;;;;;;;;;;3.93;100.00;95937.84;5066596;28;19940;-70
2023/10/18 04:04:50;;;;;;;;;;;;;;;3.90;100.00;95935.63;5065610;28;19940;-72
2023/10/18 04:07:26;;;;;;;;;;;;;;;3.89;100.00;95936.63;5065139;28;19996;-71
2023/10/18 04:12:27;;;;;;;;;;;;;;;4.65;100.00;95926.28;5066354;28;19939;-71
2023/10/18 04:14:55;;;;;;;;;;;;;;;5.23;100.00;95910.28;5065396;28;19943;-71
2023/10/18 04:17:32;;;;;;;;;;;;;;;5.46;100.00;95907.31;5065915;28;19934;-71
2023/10/18 04:20:00;;;;;;;;;;;;;;;5.38;100.00;95915.31;5065326;28;20001;-77
2023/10/18 04:22:27;;;;;;;;;;;;;;;5.22;100.00;95914.66;5065335;28;19936;-72
2023/10/18 04:24:54;;;;;;;;;;;;;;;5.04;100.00;95901.44;5065726;28;19987;-72
2023/10/18 04:27:21;;;;;;;;;;;;;;;4.85;100.00;95885.59;5065160;28;20133;-73
2023/10/18 04:29:48;;;;;;;;;;;;;;;4.70;100.00;95895.31;5065108;28;20250;-72
2023/10/18 04:32:19;;;;;;;;;;;;;;;4.58;100.00;95892.50;5065454;28;19942;-72
2023/10/18 04:34:46;;;;;;;;;;;;;;;4.47;100.00;95895.63;5065362;28;19952;-73
2023/10/18 04:37:14;;;;;;;;;;;;;;;4.39;100.00;95895.78;5065345;28;19939;-76
2023/10/18 04:39:40;;;;;;;;;;;;;;;4.31;100.00;95896.75;5064862;28;19955;-72
2023/10/18 04:42:07;;;;;;;;;;;;;;;4.24;100.00;95885.53;5064886;28;19937;-73
2023/10/18 04:44:36;;;;;;;;;;;;;;;4.18;100.00;95884.53;5065312;28;19937;-73
2023/10/18 04:47:13;;;;;;;;;;;;;;;4.13;100.00;95881.69;5064612;28;19936;-73
2023/10/18 04:49:39;;;;;;;;;;;;;;;4.09;100.00;95871.88;5064802;28;19937;-72
2023/10/18 04:52:09;;;;;;;;;;;;;;;4.06;100.00;95883.44;5064639;28;19938;-72
2023/10/18 04:54:53;;;;;;;;;;;;;;;4.02;100.00;95879.63;5064631;28;19935;-73
2023/10/18 04:57:22;;;;;;;;;;;;;;;3.99;100.00;95880.00;5064859;28;19941;-73
2023/10/18 04:59:52;;;;;;;;;;;;;;;4.10;100.00;95884.66;5065018;28;19961;-73
2023/10/18 05:02:23;;;;;;;;;;;;;;;4.15;100.00;95881.50;5065259;28;19942;-73
2023/10/18 05:04:49;;;;;;;;;;;;;;;4.11;100.00;95888.06;5065229;28;19949;-73
2023/10/18 05:07:15;;;;;;;;;;;;;;;4.05;100.00;95890.44;5064488;28;19934;-73
2023/10/18 05:09:42;;;;;;;;;;;;;;;4.01;100.00;95890.97;5064897;28;19938;-73
2023/10/18 05:17:32;;;;;;;;;;;;;;;3.86;100.00;95881.53;5065101;28;19940;-76
2023/10/18 05:20:09;;;;;;;;;;;;;;;3.84;100.00;95890.47;5064979;28;19951;-77
2023/10/18 05:22:41;;;;;;;;;;;;;;;3.81;100.00;95893.47;5064948;28;20209;-76
2023/10/18 05:27:46;;;;;;;;;;;;;;;3.76;100.00;95890.63;5064991;28;19932;-77
2023/10/18 05:30:26;;;;;;;;;;;;;;;3.73;100.00;95889.19;5064088;28;19936;-77
2023/10/18 05:35:27;;;;;;;;;;;;;;;3.70;100.00;95881.81;5064645;28;20094;-77
2023/10/18 05:38:06;;;;;;;;;;;;;;;3.68;100.00;95878.59;5063862;28;19929;-78
2023/10/18 05:43:06;;;;;;;;;;;;;;;3.69;100.00;95869.03;5064772;28;19937;-78
2023/10/18 05:45:32;;;;;;;;;;;;;;;3.68;100.00;95872.63;5063965;28;20108;-78
2023/10/18 05:47:58;;;;;;;;;;;;;;;3.68;100.00;95873.41;5063648;28;20160;-78
2023/10/18 05:50:24;;;;;;;;;;;;;;;3.70;100.00;95857.69;5064451;28;19954;-77
2023/10/18 05:52:57;;;;;;;;;;;;;;;3.70;100.00;95847.31;5064343;28;19963;-70
2023/10/18 05:55:23;;;;;;;;;;;;;;;3.73;100.00;95841.72;5063878;28;19932;-75
2023/10/18 05:57:50;;;;;;;;;;;;;;;3.76;100.00;95844.75;5063680;28;19935;-75
2023/10/18 06:00:19;;;;;;;;;;;;;;;3.78;100.00;95837.59;5063726;28;19937;-75
2023/10/18 06:02:45;;;;;;;;;;;;;;;3.81;100.00;95850.16;5063683;28;19930;-76
2023/10/18 06:05:11;;;;;;;;;;;;;;;3.85;100.00;95848.00;5063740;28;19937;-75
2023/10/18 06:07:37;;;;;;;;;;;;;;;3.88;100.00;95846.81;5064513;28;19936;-75
2023/10/18 06:10:13;;;;;;;;;;;;;;;3.91;100.00;95844.66;5063682;28;19936;-69
2023/10/18 06:12:41;;;;;;;;;;;;;;;3.94;100.00;95849.44;5063400;28;19994;-69
2023/10/18 06:15:10;;;;;;;;;;;;;;;3.99;100.00;95841.06;5063595;28;19944;-70
2023/10/18 06:20:24;;;;;;;;;;;;;;;4.04;100.00;95833.53;5064094;28;20002;-70
2023/10/18 06:22:50;;;;;;;;;;;;;;;4.06;100.00;95842.72;5064071;28;19938;-70
2023/10/18 06:25:25;;;;;;;;;;;;;;;4.06;100.00;95839.34;5063520;28;19939;-69
2023/10/18 06:27:53;;;;;;;;;;;;;;;4.07;100.00;95836.56;5064038;28;19935;-71
2023/10/18 06:30:19;;;;;;;;;;;;;;;4.38;100.00;95839.69;5065399;28;19933;-81
2023/10/18 06:32:45;;;;;;;;;;;;;;;4.87;100.00;95833.44;5066177;28;19934;-72
2023/10/18 06:35:16;;;;;;;;;;;;;;;5.07;100.00;95817.88;5067279;28;19952;-71
2023/10/18 06:37:42;;;;;;;;;;;;;;;5.28;100.00;95820.28;5067548;28;20214;-71
2023/10/18 06:40:21;;;;;;;;;;;;;;;5.42;100.00;95810.72;5067122;28;19957;-71
2023/10/18 06:42:47;;;;;;;;;;;;;;;5.36;100.00;95805.50;5067702;28;19936;-72
2023/10/18 06:45:18;;;;;;;;;;;;;;;5.26;100.00;95798.09;5067228;28;19940;-72
2023/10/18 06:47:44;;;;;;;;;;;;;;;5.17;100.00;95809.72;5067415;28;19968;-77
2023/10/18 06:50:11;;;;;;;;;;;;;;;5.11;100.00;95813.09;5067604;28;19941;-78
2023/10/18 06:52:52;;;;;;;;;;;;;;;5.04;100.00;95797.47;5067002;28;20219;-79
2023/10/18 06:55:35;;;;;;;;;;;;;;;5.00;100.00;95783.31;5066966;28;19933;-78
2023/10/18 06:58:11;;;;;;;;;;;;;;;4.96;100.00;95774.31;5066832;28;19940;-78
2023/10/18 07:00:43;;;;;;;;;;;;;;;4.98;100.00;95769.72;5067672;28;19938;-78
2023/10/18 07:03:16;;;;;;;;;;;;;;;5.02;100.00;95771.72;5066828;28;19943;-78
2023/10/18 07:05:54;;;;;;;;;;;;;;;5.14;100.00;95766.69;5066913;28;19935;-70
2023/10/18 07:08:25;;;;;;;;;;;;;;;5.25;100.00;95767.91;5067317;28;19937;-69
2023/10/18 07:10:57;;;;;;;;;;;;;;;5.40;100.00;95759.91;5067245;28;19936;-70
2023/10/18 07:13:42;;;;;;;;;;;;;;;5.53;100.00;95759.88;5067484;28;19933;-70
2023/10/18 07:19:06;;;;;;;;;;;;;;;5.70;100.00;95781.06;5066395;28;20136;-70
2023/10/18 07:21:33;;;;;;;;;;;;;;;5.74;100.00;95794.47;5066791;28;20123;-70
2023/10/18 07:24:02;;;;;;;;;;;;;;;5.73;100.00;95785.03;5066379;28;19954;-73
2023/10/18 07:26:29;;;;;;;;;;;;;;;5.74;100.00;95779.66;5067216;28;19934;-72
2023/10/18 07:28:55;;;;;;;;;;;;;;;5.62;100.00;95789.06;5066199;28;20236;-73
2023/10/18 07:31:25;;;;;;;;;;;;;;;5.49;100.00;95801.09;5066783;28;20200;-72
2023/10/18 07:33:50;;;;;;;;;;;;;;;5.52;100.00;95807.69;5066210;28;20119;-72
2023/10/18 07:36:19;;;;;;;;;;;;;;;5.64;100.00;95806.06;5066164;28;19954;-72
2023/10/18 07:38:49;;;;;;;;;;;;;;;5.77;100.00;95807.84;5066043;28;19997;-73
2023/10/18 07:41:15;;;;;;;;;;;;;;;5.85;100.00;95796.44;5065752;28;19955;-77
2023/10/18 07:43:44;;;;;;;;;;;;;;;5.82;100.00;95799.47;5066012;28;20104;-72
2023/10/18 07:46:16;;;;;;;;;;;;;;;5.79;100.00;95792.84;5064861;28;20219;-71
2023/10/18 07:48:46;;;;;;;;;;;;;;;5.81;100.00;95792.63;5065926;28;20157;-71
2023/10/18 07:51:25;;;;;;;;;;;;;;;5.88;100.00;95778.63;5066651;28;20115;-71
2023/10/18 07:53:53;;;;;;;;;;;;;;;5.94;100.00;95784.00;5065793;28;19945;-71
2023/10/18 07:56:29;;;;;;;;;;;;;;;6.06;100.00;95796.19;5066319;28;20206;-71
2023/10/18 07:58:55;;;;;;;;;;;;;;;6.14;100.00;95797.00;5066168;28;19953;-72
2023/10/18 08:02:07;;;;;;;;;;;;;;;6.26;100.00;95793.53;5066180;28;19963;-72
2023/10/18 08:04:17;;;;;;;;;;;;;;;6.34;100.00;95784.72;5062594;28;20128;-80
2023/10/18 08:06:48;;;;;;;;;;;;;;;6.38;100.00;95780.66;5065458;28;20198;-82
2023/10/18 08:09:19;;;;;;;;;;;;;;;6.50;100.00;95773.00;5065636;28;19935;-80
2023/10/18 08:11:47;;;;;;;;;;;;;;;6.66;100.00;95769.91;5065434;28;19938;-80
2023/10/18 08:14:16;;;;;;;;;;;;;;;6.87;100.00;95773.97;5065373;28;19933;-80
2023/10/18 08:16:43;;;;;;;;;;;;;;;7.07;100.00;95768.63;5065790;28;19953;-81
2023/10/18 08:19:11;;;;;;;;;;;;;;;7.28;100.00;95772.66;5065231;28;19954;-73
2023/10/18 08:21:38;;;;;;;;;;;;;;;7.44;100.00;95760.13;5065293;28;19941;-78
2023/10/18 08:24:20;;;;;;;;;;;;;;;7.56;100.00;95750.56;5065701;28;19941;-78
2023/10/18 08:26:47;;;;;;;;;;;;;;;7.74;100.00;95760.22;5065387;28;19947;-78
2023/10/18 08:29:13;;;;;;;;;;;;;;;7.81;100.00;95742.69;5065032;28;19937;-78
2023/10/18 08:31:39;;;;;;;;;;;;;;;7.93;100.00;95737.53;5065117;28;20215;-78
2023/10/18 08:34:05;;;;;;;;;;;;;;;7.91;100.00;95729.91;5065682;28;20225;-78
2023/10/18 08:36:34;;;;;;;;;;;;;;;7.90;100.00;95733.53;5064933;28;19948;-73
2023/10/18 08:39:04;;;;;;;;;;;;;;;7.99;100.00;95720.19;5064773;28;19978;-81
2023/10/18 08:41:33;;;;;;;;;;;;;;;8.07;100.00;95715.47;5064901;28;19933;-72
2023/10/18 08:44:15;;;;;;;;;;;;;;;8.13;100.00;95719.03;5065271;28;19935;-72
2023/10/18 08:46:43;;;;;;;;;;;;;;;8.20;100.00;95724.16;5065254;28;19935;-72
2023/10/18 08:49:13;;;;;;;;;;;;;;;8.22;100.00;95715.06;5064431;28;20285;-72
2023/10/18 08:51:44;;;;;;;;;;;;;;;8.23;100.00;95705.41;5064331;28;19947;-72
2023/10/18 08:54:17;;;;;;;;;;;;;;;8.26;100.00;95705.00;5065362;28;20095;-72
2023/10/18 08:56:47;;;;;;;;;;;;;;;8.33;100.00;95710.91;5065394;28;19935;-77
2023/10/18 08:59:18;;;;;;;;;;;;;;;8.43;100.00;95711.22;5064469;28;20275;-74
2023/10/18 09:04:31;;;;;;;;;;;;;;;8.60;100.00;95690.47;5064419;28;19938;-73
2023/10/18 09:07:00;;;;;;;;;;;;;;;8.54;100.00;95680.91;5064322;28;19943;-73
2023/10/18 09:09:34;;;;;;;;;;;;;;;8.48;100.00;95680.00;5063234;28;20239;-73
2023/10/18 09:12:05;;;;;;;;;;;;;;;8.50;100.00;95701.47;5064248;28;20014;-73
2023/10/18 09:14:33;;;;;;;;;;;;;;;8.56;100.00;95714.66;5064322;28;19941;-76
2023/10/18 09:17:02;;;;;;;;;;;;;;;8.65;100.00;95706.28;5064200;28;19934;-72
2023/10/18 09:19:28;;;;;;;;;;;;;;;8.76;100.00;95711.75;5064089;28;20007;-72
2023/10/18 09:21:57;;;;;;;;;;;;;;;8.84;100.00;95708.81;5064653;28;19939;-73
2023/10/18 09:24:23;;;;;;;;;;;;;;;8.92;100.00;95695.41;5064644;28;19939;-72
2023/10/18 09:26:49;;;;;;;;;;;;;;;9.02;100.00;95697.47;5064322;28;19988;-72
2023/10/18 09:29:16;;;;;;;;;;;;;;;9.11;100.00;95670.78;5064082;28;19927;-74
2023/10/18 09:32:02;;;;;;;;;;;;;;;9.13;100.00;95660.88;5064028;28;19946;-72
2023/10/18 09:34:33;;;;;;;;;;;;;;;9.20;100.00;95668.63;5064732;28;19957;-76
2023/10/18 09:36:59;;;;;;;;;;;;;;;9.31;100.00;95664.41;5063966;28;19943;-76
2023/10/18 09:39:37;;;;;;;;;;;;;;;9.42;100.00;95660.16;5064126;28;19975;-76
2023/10/18 09:42:04;;;;;;;;;;;;;;;9.54;100.00;95656.50;5063891;28;19931;-76
2023/10/18 09:44:30;;;;;;;;;;;;;;;9.62;100.00;95650.13;5063861;28;19955;-75
2023/10/18 09:46:59;;;;;;;;;;;;;;;9.72;100.00;95654.75;5064382;28;19941;-76
2023/10/18 09:49:26;;;;;;;;;;;;;;;9.86;100.00;95645.63;5064594;28;19952;-76
2023/10/18 09:51:55;;;;;;;;;;;;;;;10.00;100.00;95642.75;5064268;28;19935;-72
2023/10/18 09:54:24;;;;;;;;;;;;;;;10.09;100.00;95618.53;5046063;28;20157;-73
2023/10/18 09:56:53;;;;;;;;;;;;;;;10.13;100.00;95609.19;5063691;28;19947;-73
2023/10/18 09:59:27;;;;;;;;;;;;;;;10.15;100.00;95630.72;5064469;28;19959;-73
2023/10/18 10:01:57;;;;;;;;;;;;;;;10.18;100.00;95634.66;5063716;28;19941;-73
2023/10/18 10:04:25;;;;;;;;;;;;;;;10.20;100.00;95603.00;5065667;28;19938;-72
2023/10/18 10:06:55;;;;;;;;;;;;;;;10.19;100.00;95611.91;5067733;28;20119;-73
2023/10/18 10:09:29;;;;;;;;;;;;;;;10.21;100.00;95620.34;5068157;28;19938;-70
2023/10/18 10:11:55;;;;;;;;;;;;;;;10.30;100.00;95634.66;5067765;28;19935;-70
2023/10/18 10:14:24;;;;;;;;;;;;;;;10.41;100.00;95612.03;5067941;28;20002;-70
2023/10/18 10:16:56;;;;;;;;;;;;;;;10.51;100.00;95614.81;5067598;28;19934;-69
2023/10/18 10:19:31;;;;;;;;;;;;;;;10.63;100.00;95597.19;5067498;28;20037;-69
2023/10/18 10:22:07;;;;;;;;;;;;;;;10.77;100.00;95577.50;5067471;28;20120;-69
2023/10/18 10:24:35;;;;;;;;;;;;;;;10.84;96.66;95556.34;5068028;28;20240;-69
2023/10/18 10:27:21;;;;;;;;;;;;;;;10.80;98.93;95557.06;5067403;28;19935;-72
2023/10/18 10:29:56;;;;;;;;;;;;;;;10.76;99.24;95568.03;5067981;28;20262;-82
2023/10/18 10:32:27;;;;;;;;;;;;;;;10.76;100.00;95599.50;5067844;28;19940;-73
2023/10/18 10:35:15;;;;;;;;;;;;;;;10.79;100.00;95592.97;5067693;28;19955;-73
2023/10/18 10:37:48;;;;;;;;;;;;;;;10.84;100.00;95573.91;5067779;28;20121;-73
2023/10/18 10:43:02;;;;;;;;;;;;;;;10.87;100.00;95570.78;5067174;28;19937;-73
2023/10/18 10:45:30;;;;;;;;;;;;;;;10.92;100.00;95569.03;5067141;28;20058;-75
2023/10/18 10:48:16;;;;;;;;;;;;;;;10.92;99.66;95555.13;5066934;28;19962;-74
2023/10/18 10:50:45;;;;;;;;;;;;;;;10.89;100.00;95558.22;5067255;28;19943;-69
2023/10/18 10:53:11;;;;;;;;;;;;;;;10.95;100.00;95554.66;5066903;28;19936;-69
2023/10/18 10:55:38;;;;;;;;;;;;;;;11.02;100.00;95555.25;5067690;28;20205;-70
2023/10/18 10:58:15;;;;;;;;;;;;;;;11.05;99.10;95546.13;5067316;28;19936;-69
2023/10/18 11:01:02;;;;;;;;;;;;;;;11.08;99.96;95543.78;5066726;28;19954;-69
2023/10/18 11:03:46;;;;;;;;;;;;;;;11.11;99.08;95529.41;5066646;28;20234;-69
2023/10/18 11:06:19;;;;;;;;;;;;;;;11.18;100.00;95543.94;5066669;28;19942;-71
2023/10/18 11:08:45;;;;;;;;;;;;;;;11.28;100.00;95537.22;5067255;28;19976;-73
2023/10/18 11:11:14;;;;;;;;;;;;;;;11.34;99.13;95523.13;5066687;28;20104;-73
2023/10/18 11:13:41;;;;;;;;;;;;;;;11.35;99.45;95519.47;5066555;28;19939;-73
2023/10/18 11:16:07;;;;;;;;;;;;;;;11.36;98.12;95497.44;5066878;28;19937;-73
2023/10/18 11:18:41;;;;;;;;;;;;;;;11.41;99.98;95507.97;5066518;28;19935;-72
2023/10/18 11:21:29;;;;;;;;;;;;;;;11.52;100.00;95516.75;5066797;28;19957;-73
2023/10/18 11:24:02;;;;;;;;;;;;;;;11.62;99.26;95503.72;5066403;28;19940;-70
2023/10/18 11:26:28;;;;;;;;;;;;;;;11.68;97.64;95502.75;5066867;28;20216;-69
2023/10/18 11:28:58;;;;;;;;;;;;;;;11.74;99.30;95496.50;5066259;28;19925;-69
2023/10/18 11:31:28;;;;;;;;;;;;;;;11.83;95.65;95481.09;5067049;28;20232;-70
2023/10/18 11:34:04;;;;;;;;;;;;;;;11.94;97.48;95489.88;5066152;28;19951;-70
2023/10/18 11:36:32;;;;;;;;;;;;;;;12.10;94.96;95470.56;5066382;28;20126;-69
2023/10/18 11:39:18;;;;;;;;;;;;;;;12.18;91.17;95443.81;5065982;28;19938;-70
2023/10/18 11:41:45;;;;;;;;;;;;;;;12.21;94.29;95465.41;5066054;28;19942;-72
2023/10/18 11:44:16;;;;;;;;;;;;;;;12.19;94.52;95471.69;5065983;28;19940;-73
2023/10/18 11:46:46;;;;;;;;;;;;;;;12.22;95.51;95466.97;5066194;28;20208;-73
2023/10/18 11:49:13;;;;;;;;;;;;;;;12.21;94.58;95458.28;5065681;28;19967;-72
2023/10/18 11:51:44;;;;;;;;;;;;;;;12.18;92.49;95441.19;5065820;28;19939;-73
2023/10/18 11:54:12;;;;;;;;;;;;;;;12.19;94.74;95449.88;5065778;28;19945;-72
2023/10/18 11:56:38;;;;;;;;;;;;;;;12.14;95.18;95436.69;5066248;28;19944;-73
2023/10/18 11:59:05;;;;;;;;;;;;;;;12.09;91.18;95421.66;5066170;28;20217;-72
2023/10/18 12:01:33;;;;;;;;;;;;;;;12.00;90.44;95396.91;5065692;28;19940;-81
2023/10/18 12:04:00;;;;;;;;;;;;;;;11.98;95.48;95439.19;5065630;28;19943;-73
2023/10/18 12:06:26;;;;;;;;;;;;;;;12.02;94.05;95422.94;5065828;28;19939;-72
2023/10/18 12:11:37;;;;;;;;;;;;;;;12.13;97.68;95446.41;5065525;28;19941;-73
2023/10/18 12:14:04;;;;;;;;;;;;;;;12.23;97.14;95434.41;5065442;28;20148;-72
2023/10/18 12:16:32;;;;;;;;;;;;;;;12.28;94.78;95419.44;5065545;28;19941;-72
2023/10/18 12:18:58;;;;;;;;;;;;;;;12.29;96.96;95434.16;5065310;28;19962;-70
2023/10/18 12:21:29;;;;;;;;;;;;;;;12.28;95.68;95427.31;5065999;28;19954;-75
2023/10/18 12:23:55;;;;;;;;;;;;;;;12.27;96.58;95438.88;5065794;28;19935;-75
2023/10/18 12:26:24;;;;;;;;;;;;;;;12.26;97.33;95447.03;5064921;28;19934;-75
2023/10/18 12:28:52;;;;;;;;;;;;;;;12.23;94.99;95427.28;5065068;28;19946;-75
2023/10/18 12:31:26;;;;;;;;;;;;;;;12.18;96.43;95440.41;5065113;28;19937;-74
2023/10/18 12:33:57;;;;;;;;;;;;;;;12.17;96.39;95436.97;5065318;28;19940;-76
2023/10/18 12:36:32;;;;;;;;;;;;;;;12.18;97.57;95435.94;5064167;28;20127;-79
2023/10/18 12:38:58;;;;;;;;;;;;;;;12.22;98.67;95438.06;5064876;28;19944;-82
2023/10/18 12:41:31;;;;;;;;;;;;;;;12.28;98.90;95434.41;5064845;28;19950;-83
2023/10/18 12:44:01;;;;;;;;;;;;;;;12.31;96.08;95421.56;5065339;28;19939;-83
2023/10/18 12:46:27;;;;;;;;;;;;;;;12.30;98.25;95425.22;5064765;28;19939;-83
2023/10/18 12:48:53;;;;;;;;;;;;;;;12.31;98.15;95426.81;5064655;28;20185;-83
2023/10/18 12:51:20;;;;;;;;;;;;;;;12.28;98.43;95422.06;5064919;28;19942;-84
2023/10/18 12:53:49;;;;;;;;;;;;;;;12.27;100.00;95425.75;5064687;28;19998;-83
2023/10/18 12:59:22;;;;;;;;;;;;;;;12.27;100.00;95415.22;5065095;28;19953;-70
2023/10/18 13:01:43;;;;;;;;;;;;;;;12.31;100.00;95415.53;5064893;28;20258;-70
2023/10/18 13:04:17;;;;;;;;;;;;;;;12.32;100.00;95396.84;5065060;28;20219;-70
2023/10/18 13:06:46;;;;;;;;;;;;;;;12.34;100.00;95380.81;5065039;28;20111;-70
2023/10/18 13:09:16;;;;;;;;;;;;;;;12.30;99.50;95388.41;5064398;28;19984;-69
2023/10/18 13:14:29;;;;;;;;;;;;;;;12.23;100.00;95382.63;5064351;28;19947;-81
2023/10/18 13:16:56;;;;;;;;;;;;;;;12.20;100.00;95385.75;5064402;28;19940;-75
2023/10/18 13:19:24;;;;;;;;;;;;;;;12.17;100.00;95384.41;5064935;28;19946;-75
2023/10/18 13:21:50;;;;;;;;;;;;;;;12.15;99.60;95373.34;5064064;28;19943;-74
2023/10/18 13:24:17;;;;;;;;;;;;;;;12.14;100.00;95378.88;5064602;28;19939;-74
2023/10/18 13:26:43;;;;;;;;;;;;;;;12.12;99.72;95363.38;5064042;28;19940;-74
2023/10/18 13:29:16;;;;;;;;;;;;;;;12.14;100.00;95374.41;5064125;28;19939;-75
2023/10/18 13:31:44;;;;;;;;;;;;;;;12.18;100.00;95357.09;5064843;28;19944;-73
2023/10/18 13:34:18;;;;;;;;;;;;;;;12.23;100.00;95356.31;5064516;28;19992;-72
2023/10/18 13:36:50;;;;;;;;;;;;;;;12.28;100.00;95348.47;5064732;28;19941;-73
2023/10/18 13:39:16;;;;;;;;;;;;;;;12.33;100.00;95347.72;5063825;28;19963;-73
2023/10/18 13:41:46;;;;;;;;;;;;;;;12.35;100.00;95349.03;5063926;28;19942;-72
2023/10/18 13:44:12;;;;;;;;;;;;;;;12.33;100.00;95339.81;5063861;28;19981;-72
2023/10/18 13:46:38;;;;;;;;;;;;;;;12.27;100.00;95367.91;5063885;28;19934;-72
2023/10/18 13:49:08;;;;;;;;;;;;;;;12.22;100.00;95352.13;5063689;28;19991;-72
2023/10/18 13:51:37;;;;;;;;;;;;;;;12.14;100.00;95356.03;5064328;28;19943;-81